Norman, OK

12:04 AM CDT on March 27, 2017 (GMT -0500)
Univ. Of Oklahoma Westheimer

Weather History for KOUN - November, 2013

Change the Weather History Date:

Wednesday, November 6, 2013

  Actual Average Record
Temperature  
Mean Temperature 43 °F -  
Max Temperature 51 °F 63 °F 87 °F (1950)
Min Temperature 35 °F 42 °F 19 °F (1951)
Degree Days  
Heating Degree Days 22    
Moisture  
Dew Point 38 °F    
Average Humidity 81    
Maximum Humidity 100    
Minimum Humidity 50    
Precipitation  
Precipitation 0.08 in - - ()
Sea Level Pressure  
Sea Level Pressure 30.26 in    
Wind  
Wind Speed 14 mph (NNW)    
Max Wind Speed 22 mph    
Max Gust Speed 28 mph    
Visibility 10 miles    
Events Rain    
Averages and records for this station are not official NWS values.
T = Trace of Precipitation, MM = Missing Value Source: NWS Daily Summary

Daily Weather History Graph

Daily Weather History Graph

Search for Another Location

Airport or City:

Trip Planner

Search our weather history database for the weather conditions in past years. The results will help you decide how hot, cold, wet, or windy it might be!

Date:

Astronomy

Nov. 06, 2013 Rise Set
Actual Time 6:56 AM CST 5:30 PM CST
Civil Twilight 6:29 AM CST 5:56 PM CST
Nautical Twilight 5:59 AM CST 6:27 PM CST
Astronomical Twilight 5:29 AM CST 6:56 PM CST
Moon 10:09 AM CST (11/6) 8:38 PM CST (11/6)
Length of Visible Light 11h 27m
Length of Day
10h 34m
Waxing Crescent, 14% of the Moon is Illuminated
Nov 6
Waxing Crescent
Nov 9
First Quarter
Nov 17
Full
Nov 25
Last Quarter
Dec 2
New

Hourly Weather History & Observations

Time (CST) Temp. Windchill Dew Point Humidity Pressure Visibility Wind Dir Wind Speed Gust Speed Precip Events Conditions
12:15 AM 44.6 °F 36.6 °F 44.6 °F 100% 30.04 in 10.0 mi NNW 19.6 mph 25.3 mph 0.01 in   Light Drizzle
12:35 AM 44.6 °F 37.4 °F 44.6 °F 100% 30.05 in 4.0 mi NNW 16.1 mph 23.0 mph 0.04 in Rain Rain
12:55 AM 44.6 °F 36.9 °F 44.6 °F 100% 30.04 in 10.0 mi NNW 18.4 mph 27.6 mph 0.06 in Rain Rain
1:15 AM 44.6 °F 36.4 °F 44.6 °F 100% 30.05 in 10.0 mi NNW 20.7 mph 25.3 mph 0.01 in Rain Light Rain
1:35 AM 44.6 °F 37.2 °F 44.6 °F 100% 30.08 in 10.0 mi NNW 17.3 mph 24.2 mph 0.01 in   Overcast
1:55 AM 44.6 °F 37.8 °F 44.6 °F 100% 30.08 in 10.0 mi NNW 15.0 mph 23.0 mph 0.01 in   Overcast
2:15 AM 42.8 °F 34.8 °F 42.8 °F 100% 30.09 in 10.0 mi NNW 17.3 mph 23.0 mph N/A   Overcast
2:35 AM 42.8 °F 34.5 °F 42.8 °F 100% 30.10 in 10.0 mi NNW 18.4 mph 23.0 mph N/A   Overcast
2:55 AM 42.8 °F 34.5 °F 42.8 °F 100% 30.09 in 10.0 mi NNW 18.4 mph - N/A   Overcast
3:15 AM 42.8 °F 34.5 °F 41.0 °F 93% 30.11 in 10.0 mi NNW 18.4 mph 26.5 mph N/A   Overcast
3:35 AM 42.8 °F 34.0 °F 41.0 °F 93% 30.10 in 10.0 mi NNW 20.7 mph 25.3 mph N/A   Overcast
3:55 AM 41.0 °F 32.2 °F 41.0 °F 100% 30.12 in 10.0 mi North 18.4 mph 24.2 mph N/A   Overcast
4:15 AM 41.0 °F 31.6 °F 41.0 °F 100% 30.13 in 10.0 mi NNW 20.7 mph 26.5 mph N/A   Overcast
4:35 AM 41.0 °F 31.4 °F 39.2 °F 93% 30.14 in 10.0 mi NNW 21.9 mph 26.5 mph N/A   Overcast
4:55 AM 41.0 °F 32.8 °F 39.2 °F 93% 30.15 in 10.0 mi NNW 16.1 mph 24.2 mph N/A   Overcast
5:15 AM 41.0 °F 32.8 °F 37.4 °F 87% 30.14 in 10.0 mi NNW 16.1 mph 21.9 mph N/A   Overcast
5:35 AM 39.2 °F 29.0 °F 37.4 °F 93% 30.17 in 10.0 mi North 21.9 mph 25.3 mph N/A   Overcast
5:55 AM 39.2 °F 30.5 °F 37.4 °F 93% 30.17 in 10.0 mi North 16.1 mph 23.0 mph N/A   Overcast
6:15 AM 39.2 °F 32.0 °F 37.4 °F 93% 30.20 in 10.0 mi North 11.5 mph 19.6 mph N/A   Overcast
6:35 AM 39.2 °F 32.0 °F 37.4 °F 93% 30.21 in 10.0 mi North 11.5 mph 19.6 mph N/A   Overcast
6:55 AM 39.2 °F 31.2 °F 37.4 °F 93% 30.22 in 10.0 mi NNW 13.8 mph 23.0 mph N/A   Overcast
7:15 AM 39.2 °F 32.0 °F 37.4 °F 93% 30.24 in 10.0 mi North 11.5 mph - N/A   Overcast
7:35 AM 39.2 °F 30.5 °F 37.4 °F 93% 30.24 in 10.0 mi North 16.1 mph - N/A   Overcast
7:55 AM 41.0 °F 33.1 °F 37.4 °F 87% 30.25 in 10.0 mi North 15.0 mph 19.6 mph N/A   Overcast
8:15 AM 41.0 °F 33.1 °F 37.4 °F 87% 30.26 in 10.0 mi NNW 15.0 mph - N/A   Overcast
8:35 AM 41.0 °F 32.8 °F 37.4 °F 87% 30.26 in 10.0 mi NNW 16.1 mph - N/A   Overcast
8:55 AM 41.0 °F 32.8 °F 37.4 °F 87% 30.28 in 10.0 mi NNW 16.1 mph - N/A   Mostly Cloudy
9:15 AM 42.8 °F 35.8 °F 37.4 °F 81% 30.28 in 10.0 mi NNW 13.8 mph - N/A   Mostly Cloudy
9:35 AM 42.8 °F 35.1 °F 37.4 °F 81% 30.28 in 10.0 mi North 16.1 mph - N/A   Mostly Cloudy
9:55 AM 42.8 °F 35.1 °F 37.4 °F 81% 30.30 in 10.0 mi NNW 16.1 mph 21.9 mph N/A   Scattered Clouds
10:15 AM 44.6 °F 37.4 °F 37.4 °F 76% 30.29 in 10.0 mi NNW 16.1 mph 19.6 mph N/A   Scattered Clouds
10:35 AM 44.6 °F 37.2 °F 37.4 °F 76% 30.29 in 10.0 mi NNW 17.3 mph - N/A   Scattered Clouds
10:55 AM 46.4 °F 39.8 °F 37.4 °F 71% 30.30 in 10.0 mi North 16.1 mph 23.0 mph N/A   Clear
11:15 AM 46.4 °F 41.1 °F 37.4 °F 71% 30.30 in 10.0 mi NW 11.5 mph - N/A   Clear
11:35 AM 48.2 °F - 39.2 °F 71% 30.30 in 10.0 mi NNW 11.5 mph 19.6 mph N/A   Clear
11:55 AM 48.2 °F - 39.2 °F 71% 30.30 in 10.0 mi NNW 16.1 mph 19.6 mph N/A   Clear
12:15 PM 50.0 °F - 39.2 °F 66% 30.29 in 10.0 mi NNW 12.7 mph 20.7 mph N/A   Clear
12:35 PM 50.0 °F - 39.2 °F 66% 30.29 in 10.0 mi North 11.5 mph 16.1 mph N/A   Clear
12:55 PM 50.0 °F - 39.2 °F 66% 30.28 in 10.0 mi North 12.7 mph 20.7 mph N/A   Clear
1:15 PM 51.8 °F - 39.2 °F 62% 30.29 in 10.0 mi NNW 13.8 mph 18.4 mph N/A   Clear
1:35 PM 51.8 °F - 37.4 °F 58% 30.28 in 10.0 mi NNW 13.8 mph 18.4 mph N/A   Clear
1:55 PM 51.8 °F - 37.4 °F 58% 30.29 in 10.0 mi North 15.0 mph 21.9 mph 0.01 in   Clear
2:15 PM 51.8 °F - 37.4 °F 58% 30.29 in 10.0 mi NNW 17.3 mph - N/A   Clear
2:35 PM 51.8 °F - 37.4 °F 58% 30.29 in 10.0 mi North 15.0 mph 18.4 mph N/A   Clear
2:55 PM 51.8 °F - 35.6 °F 54% 30.29 in 10.0 mi North 15.0 mph - N/A   Clear
3:15 PM 51.8 °F - 35.6 °F 54% 30.29 in 10.0 mi North 12.7 mph - N/A   Clear
3:35 PM 51.8 °F - 35.6 °F 54% 30.30 in 10.0 mi NNW 12.7 mph 17.3 mph N/A   Clear
3:55 PM 51.8 °F - 35.6 °F 54% 30.30 in 10.0 mi North 11.5 mph - N/A   Clear
4:15 PM 51.8 °F - 33.8 °F 50% 30.30 in 10.0 mi North 11.5 mph 17.3 mph N/A   Clear
4:35 PM 51.8 °F - 33.8 °F 50% 30.30 in 10.0 mi NNW 11.5 mph - N/A   Clear
4:55 PM 50.0 °F - 35.6 °F 58% 30.31 in 10.0 mi North 8.1 mph - N/A   Clear
5:15 PM 48.2 °F - 33.8 °F 58% 30.31 in 10.0 mi North 8.1 mph - N/A   Clear
5:35 PM 44.6 °F 40.7 °F 35.6 °F 71% 30.32 in 10.0 mi NNW 6.9 mph - N/A   Clear
5:55 PM 44.6 °F 42.2 °F 35.6 °F 71% 30.32 in 10.0 mi North 4.6 mph - N/A   Clear
6:15 PM 42.8 °F 40.1 °F 35.6 °F 76% 30.33 in 10.0 mi North 4.6 mph - N/A   Clear
6:35 PM 42.8 °F 39.3 °F 35.6 °F 76% 30.33 in 10.0 mi NNW 5.8 mph - N/A   Clear
6:55 PM 42.8 °F 41.1 °F 35.6 °F 76% 30.34 in 10.0 mi NNW 3.5 mph - N/A   Clear
7:15 PM 42.8 °F 41.1 °F 35.6 °F 76% 30.34 in 10.0 mi NW 3.5 mph - N/A   Unknown
7:35 PM 42.8 °F 41.1 °F 35.6 °F 76% 30.35 in 10.0 mi NW 3.5 mph - N/A   Clear
7:55 PM 41.0 °F - 35.6 °F 81% 30.36 in 10.0 mi Calm Calm - N/A   Clear
8:15 PM 42.8 °F - 35.6 °F 76% 30.36 in 10.0 mi Calm Calm - N/A   Clear
8:35 PM 41.0 °F 39.0 °F 35.6 °F 81% 30.37 in 10.0 mi West 3.5 mph - N/A   Clear
8:55 PM 41.0 °F 39.0 °F 35.6 °F 81% 30.37 in 10.0 mi WNW 3.5 mph - N/A   Clear
9:15 PM 37.4 °F - 35.6 °F 93% 30.37 in 10.0 mi Calm Calm - N/A   Clear
9:35 PM 37.4 °F - 35.6 °F 93% 30.37 in 10.0 mi Calm Calm - N/A   Clear
9:55 PM 37.4 °F - 35.6 °F 93% 30.37 in 10.0 mi Calm Calm - N/A   Clear
10:15 PM 37.4 °F - 35.6 °F 93% 30.38 in 10.0 mi Calm Calm - N/A   Clear
10:35 PM 37.4 °F - 35.6 °F 93% 30.38 in 10.0 mi Calm Calm - N/A   Clear
10:55 PM 35.6 °F 31.7 °F 35.6 °F 100% 30.39 in 10.0 mi South 4.6 mph - N/A   Clear
11:15 PM 35.6 °F - 35.6 °F 100% 30.38 in 10.0 mi Calm Calm - N/A   Clear
11:35 PM 35.6 °F - 35.6 °F 100% 30.39 in 10.0 mi Calm Calm - N/A   Clear
11:55 PM 35.6 °F - 35.6 °F 100% 30.39 in 10.0 mi Calm Calm - N/A   Clear